RPLB

Subic Bay International Airport

Olongapo City, Philippines
TAF RPLB 161100Z 1612/1712 07006KT 9999 FEW020 SCT300 TX32/1706Z TN24/1622Z TEMPO 1612/1618 04012KT FEW020 BKN080
Issued Valid From Valid To
Dec-16 @ 11:00 UTC
(2 hours ago)
Dec-16 @ 12:00 UTC
(44 minutes ago)
Dec-17 @ 12:00 UTC
(in 23 hours)
Dec-16 @ 12:00 to Dec-17 @ 12:00
TAF RPLB 161100Z 1612/1712 07006KT 9999 FEW020 SCT300 TX32/1706Z TN24/1622Z
Wind Visibility Clouds
70° at 6 knots 10,000+ meters
  • Few at 2,000' AGL
  • Scattered at 30,000' AGL
Temporary Dec-16 @ 12:00 to Dec-16 @ 18:00
TEMPO 1612/1618 04012KT FEW020 BKN080
Wind Clouds
40° at 12 knots
  • Few at 2,000' AGL
  • Broken at 8,000' AGL
TAF RPLB 161100Z 1612/1712 07006KT 9999 FEW020 SCT300 TX32/1706Z TN24/1622Z TEMPO 1612/1618 04012KT FEW020 BKN080
Issued Dec-16 @ 11:00 UTC
(2 hours ago)
Valid From Dec-16 @ 12:00 UTC
(44 minutes ago)
Valid To Dec-17 @ 12:00 UTC
(in 23 hours)
Dec-16 @ 12:00 - Dec-17 @ 12:00
Wind Visibility
70° at 6 knots 10,000+ meters
Clouds
  • Few at 2,000' AGL
  • Scattered at 30,000' AGL
Temporary Dec-16 @ 12:00 - Dec-16 @ 18:00
Wind
40° at 12 knots
Clouds
  • Few at 2,000' AGL
  • Broken at 8,000' AGL